Time;durP1;ratioP1;P1;durP2;ratioP2;P2;SDS_P1;SDS_P2;PMS_P1;PMS_P2;Temp;Humidity;BMP_temperature;BMP_pressure;BME280_temperature;BME280_humidity;BME280_pressure;Samples;Min_cycle;Max_cycle;Signal;HPM_P1;HPM_P2
2023/04/05 00:01:50;;;;;;;15.32;8.60;;;4.20;99.90;;;3.21;100.00;102007.91;4209136;28;20395;-78
2023/04/05 00:03:53;;;;;;;14.05;8.48;;;4.10;99.90;;;3.17;100.00;102007.22;4228471;28;20031;-79
2023/04/05 00:05:54;;;;;;;11.50;8.02;;;4.10;99.90;;;3.16;100.00;102015.97;4212951;28;20051;-79
2023/04/05 00:08:02;;;;;;;11.63;8.50;;;4.10;99.90;;;3.14;100.00;102003.91;4217745;28;20024;-78
2023/04/05 00:10:03;;;;;;;13.95;8.25;;;4.00;99.90;;;3.11;100.00;102006.66;4203013;28;20095;-77
2023/04/05 00:12:04;;;;;;;10.88;9.13;;;4.00;99.90;;;3.08;100.00;102007.66;4204120;28;20555;-77
2023/04/05 00:14:05;;;;;;;12.43;9.52;;;4.00;99.90;;;3.06;100.00;102008.69;4222794;28;20051;-78
2023/04/05 00:16:06;;;;;;;15.52;10.65;;;4.00;99.90;;;3.04;100.00;102000.09;4205301;28;20074;-78
2023/04/05 00:18:14;;;;;;;12.73;8.57;;;4.00;99.90;;;3.03;100.00;102007.06;4202788;28;20039;-77
2023/04/05 00:20:14;;;;;;;14.35;10.07;;;3.90;99.90;;;2.95;100.00;102001.41;4202635;28;20115;-78
2023/04/05 00:22:19;;;;;;;14.48;9.82;;;3.90;99.90;;;2.95;100.00;102008.38;4215871;28;20106;-78
2023/04/05 00:24:20;;;;;;;11.57;8.43;;;3.90;99.90;;;2.91;100.00;101997.25;4201312;28;20029;-78
2023/04/05 00:26:21;;;;;;;12.50;8.00;;;3.80;99.90;;;2.88;100.00;101994.81;4203872;28;20024;-78
2023/04/05 00:28:22;;;;;;;12.88;7.78;;;3.80;99.90;;;2.90;100.00;101998.16;4202687;28;20554;-78
2023/04/05 00:30:24;;;;;;;11.27;9.00;;;3.80;99.90;;;2.90;100.00;101994.75;4203668;28;20031;-78
2023/04/05 00:32:24;;;;;;;11.52;7.88;;;3.80;99.90;;;2.90;100.00;102003.38;4203807;28;20385;-78
2023/04/05 00:34:25;;;;;;;10.82;8.35;;;3.80;99.90;;;2.91;100.00;102004.22;4213851;28;20031;-78
2023/04/05 00:36:26;;;;;;;11.30;8.63;;;3.80;99.90;;;2.90;100.00;102002.56;4203639;28;20028;-78
2023/04/05 00:38:27;;;;;;;14.00;8.93;;;3.80;99.90;;;2.85;100.00;102009.75;4203369;28;20443;-79
2023/04/05 00:40:28;;;;;;;12.75;9.13;;;3.80;99.90;;;2.77;100.00;101999.72;4203549;28;20502;-78
2023/04/05 00:42:29;;;;;;;12.68;8.35;;;3.70;99.90;;;2.76;100.00;102006.69;4203500;28;20029;-78
2023/04/05 00:44:33;;;;;;;13.27;9.48;;;3.70;99.90;;;2.70;100.00;102006.13;4209271;28;20047;-79
2023/04/05 00:46:36;;;;;;;;;;;3.60;99.90;;;2.62;100.00;102006.53;4203901;28;20020;-78
2023/04/05 00:48:38;;;;;;;14.60;9.25;;;3.60;99.90;;;2.62;100.00;101995.25;4218742;28;19915;-78
2023/04/05 00:50:40;;;;;;;13.55;9.10;;;3.60;99.90;;;2.67;100.00;102004.53;4212772;28;20044;-78
2023/04/05 00:52:42;;;;;;;19.33;13.38;;;3.60;99.90;;;2.71;100.00;101992.19;4201966;28;20083;-78
2023/04/05 00:54:43;;;;;;;24.35;14.20;;;3.60;99.90;;;2.85;100.00;101984.53;4202900;28;20031;-78
2023/04/05 00:56:44;;;;;;;18.70;13.82;;;3.70;99.90;;;2.98;100.00;101977.81;4202156;28;20535;-78
2023/04/05 00:58:47;;;;;;;19.67;13.70;;;3.70;99.90;;;3.07;100.00;101985.16;4202398;28;20017;-78
2023/04/05 01:01:13;;;;;;;15.35;11.93;;;3.80;99.90;;;3.09;100.00;101982.47;4213422;28;20028;-77
2023/04/05 01:03:15;;;;;;;16.73;11.45;;;3.90;99.90;;;3.01;100.00;101980.25;4216446;28;20037;-78
2023/04/05 01:05:46;;;;;;;15.70;10.57;;;3.90;99.90;;;2.94;100.00;101989.28;4212206;28;20017;-78
2023/04/05 01:08:30;;;;;;;14.93;9.90;;;3.80;99.90;;;2.87;100.00;101990.50;4214300;28;20081;-78
2023/04/05 01:10:38;;;;;;;17.02;10.63;;;3.80;99.90;;;2.80;100.00;101986.53;4202053;28;20036;-78
2023/04/05 01:12:39;;;;;;;17.15;11.15;;;3.70;99.90;;;2.78;100.00;101983.13;4201790;28;20109;-77
2023/04/05 01:14:52;;;;;;;21.27;12.57;;;3.70;99.90;;;2.73;100.00;101974.72;4211266;28;20033;-78
2023/04/05 01:16:57;;;;;;;15.65;11.05;;;3.60;99.90;;;2.69;100.00;101971.41;4201934;28;20032;-78
2023/04/05 01:18:57;;;;;;;;;;;3.60;99.90;;;2.64;100.00;101975.16;4202298;28;20032;-78
2023/04/05 01:21:28;;;;;;;14.57;10.20;;;3.60;99.90;;;2.58;100.00;101972.88;4218531;28;19908;-77
2023/04/05 01:24:25;;;;;;;18.98;11.73;;;3.50;99.90;;;2.49;100.00;101962.91;4222561;28;20023;-78
2023/04/05 01:26:46;;;;;;;13.02;10.27;;;3.50;99.90;;;2.48;100.00;101969.84;4220033;28;20032;-78
2023/04/05 01:29:16;;;;;;;12.35;9.23;;;3.40;99.90;;;2.45;100.00;101966.59;4215845;28;20020;-78
2023/04/05 01:32:01;;;;;;;15.68;10.02;;;3.40;99.90;;;2.41;100.00;101963.28;4219713;28;20068;-78
2023/04/05 01:34:11;;;;;;;14.45;10.07;;;3.40;99.90;;;2.41;100.00;101965.03;4168318;28;20452;-78
2023/04/05 01:36:30;;;;;;;14.27;10.35;;;3.30;99.90;;;2.39;100.00;101949.47;4202778;28;20472;-78
2023/04/05 01:38:32;;;;;;;14.93;9.80;;;3.30;99.90;;;2.40;100.00;101960.72;4201411;28;20045;-78
2023/04/05 01:40:37;;;;;;;14.35;10.07;;;3.30;99.90;;;2.39;100.00;101956.47;4201437;28;20021;-78
2023/04/05 01:42:37;;;;;;;12.65;9.90;;;3.30;99.90;;;2.37;100.00;101953.06;4202527;28;20036;-79
2023/04/05 01:44:38;;;;;;;18.73;11.65;;;3.30;99.90;;;2.36;100.00;101954.00;4206923;28;20024;-78
2023/04/05 01:46:39;;;;;;;17.85;11.13;;;3.30;99.90;;;2.28;100.00;101951.75;4202417;28;20369;-78
2023/04/05 01:48:40;;;;;;;21.63;10.73;;;3.20;99.90;;;2.28;100.00;101963.91;4202455;28;20073;-78
2023/04/05 01:50:41;;;;;;;18.52;10.18;;;3.20;99.90;;;2.22;100.00;101945.09;4202492;28;20442;-78
2023/04/05 01:52:42;;;;;;;16.15;12.10;;;3.20;99.90;;;2.26;100.00;101952.75;4201015;28;20075;-79
2023/04/05 01:54:43;;;;;;;17.55;12.23;;;3.20;99.90;;;2.28;100.00;101956.13;4224945;28;20027;-78
2023/04/05 01:56:44;;;;;;;22.15;10.98;;;3.20;99.90;;;2.28;100.00;101949.16;4202907;28;20036;-78
2023/04/05 01:58:45;;;;;;;19.00;12.38;;;3.20;99.90;;;2.28;100.00;101943.09;4202327;28;20066;-78
2023/04/05 02:00:46;;;;;;;18.83;11.75;;;3.20;99.90;;;2.27;100.00;101938.84;4201190;28;20024;-77
2023/04/05 02:02:47;;;;;;;18.35;10.63;;;3.20;99.90;;;2.22;100.00;101926.88;4214719;28;20032;-78
2023/04/05 02:04:48;;;;;;;17.65;11.18;;;3.20;99.90;;;2.21;100.00;101938.19;4214949;28;20849;-78
2023/04/05 02:06:49;;;;;;;16.75;11.20;;;3.20;99.90;;;2.08;100.00;101937.09;4202436;28;20031;-78
2023/04/05 02:08:50;;;;;;;17.77;12.48;;;3.10;99.90;;;2.11;100.00;101949.13;4213129;28;20053;-78
2023/04/05 02:10:52;;;;;;;17.33;11.32;;;3.00;99.90;;;2.05;100.00;101934.66;4213185;28;20025;-78
2023/04/05 02:12:53;;;;;;;20.63;12.68;;;3.00;99.90;;;2.04;100.00;101932.94;4217740;28;20032;-78
2023/04/05 02:14:54;;;;;;;18.77;11.98;;;3.00;99.90;;;2.02;100.00;101934.78;4212083;28;20435;-78
2023/04/05 02:16:55;;;;;;;18.17;12.57;;;3.00;99.90;;;2.04;100.00;101943.34;4200929;28;20033;-78
2023/04/05 02:18:56;;;;;;;16.83;11.82;;;3.00;99.90;;;2.02;100.00;101940.00;4200956;28;20066;-78
2023/04/05 02:21:24;;;;;;;22.95;13.15;;;2.90;99.90;;;1.96;100.00;101942.88;4202272;28;20060;-78
2023/04/05 02:23:26;;;;;;;22.23;12.43;;;2.90;99.90;;;1.89;100.00;101925.84;4203425;28;20037;-78
2023/04/05 02:25:27;;;;;;;16.08;10.80;;;2.90;99.90;;;1.86;100.00;101933.81;4211527;28;20445;-78
2023/04/05 02:27:29;;;;;;;17.55;11.55;;;2.80;99.90;;;1.83;100.00;101923.53;4200531;28;20484;-78
2023/04/05 02:29:30;;;;;;;19.70;12.43;;;2.80;99.90;;;1.81;100.00;101925.38;4200828;28;20031;-78
2023/04/05 02:31:31;;;;;;;17.60;11.55;;;2.80;99.90;;;1.80;100.00;101928.88;4200932;28;20020;-77
2023/04/05 02:33:32;;;;;;;16.63;11.55;;;2.80;99.90;;;1.80;100.00;101928.88;4203095;28;20043;-78
2023/04/05 02:35:33;;;;;;;18.02;11.77;;;2.70;99.90;;;1.79;100.00;101922.03;4202306;28;20396;-78
2023/04/05 02:37:34;;;;;;;21.77;12.55;;;2.70;99.90;;;1.75;100.00;101920.47;4200568;28;20029;-78
2023/04/05 02:39:35;;;;;;;21.60;12.68;;;2.70;99.90;;;1.81;100.00;101921.94;4200938;28;20025;-78
2023/04/05 02:41:36;;;;;;;19.35;12.30;;;2.70;99.90;;;1.78;100.00;101920.31;4201804;28;20032;-78
2023/04/05 02:43:38;;;;;;;19.88;13.13;;;2.70;99.90;;;1.78;100.00;101924.69;4202565;28;20024;-77
2023/04/05 02:45:39;;;;;;;19.35;12.23;;;2.70;99.90;;;1.77;100.00;101926.44;4204930;28;20060;-77
2023/04/05 02:47:40;;;;;;;16.75;11.93;;;2.70;99.90;;;1.74;100.00;101923.97;4218539;28;20016;-77
2023/04/05 02:49:41;;;;;;;17.20;12.07;;;2.70;99.90;;;1.68;100.00;101925.09;4218487;28;20399;-78
2023/04/05 02:51:41;;;;;;;15.75;11.32;;;2.70;99.90;;;1.68;100.00;101925.09;4217141;28;20027;-77
2023/04/05 02:53:43;;;;;;;16.83;12.10;;;2.60;99.90;;;1.67;100.00;101917.38;4221879;28;20034;-78
2023/04/05 02:55:56;;;;;;;20.83;12.32;;;2.60;99.90;;;1.71;100.00;101915.47;4210206;28;20032;-78
2023/04/05 02:57:59;;;;;;;20.73;12.70;;;2.60;99.90;;;1.71;100.00;101918.91;4212549;28;20039;-77
2023/04/05 03:00:00;;;;;;;25.20;12.73;;;2.60;99.90;;;1.76;100.00;101924.75;4215946;28;20072;-77
2023/04/05 03:02:02;;;;;;;15.90;11.10;;;2.70;99.90;;;1.66;100.00;101921.75;4208337;28;20032;-77
2023/04/05 03:04:03;;;;;;;20.90;12.55;;;2.70;99.90;;;1.59;100.00;101914.25;4217248;28;20027;-78
2023/04/05 03:06:12;;;;;;;16.85;11.60;;;2.60;99.90;;;1.56;100.00;101904.00;4205109;28;20029;-77
2023/04/05 03:08:18;;;;;;;20.10;12.35;;;2.50;99.90;;;1.59;100.00;101906.47;4201254;28;20016;-77
2023/04/05 03:10:21;;;;;;;19.08;12.88;;;2.50;99.90;;;1.59;100.00;101896.06;4209583;28;20028;-78
2023/04/05 03:12:22;;;;;;;18.60;12.30;;;2.50;99.90;;;1.58;100.00;101903.03;4218372;28;20024;-77
2023/04/05 03:14:23;;;;;;;17.73;12.32;;;2.50;99.90;;;1.57;100.00;101903.94;4225781;28;20088;-77
2023/04/05 03:16:23;;;;;;;16.75;11.88;;;2.50;99.90;;;1.54;100.00;101900.66;4203970;28;20017;-78
2023/04/05 03:18:25;;;;;;;18.98;12.80;;;2.50;99.90;;;1.50;100.00;101893.88;4220443;28;20515;-77
2023/04/05 03:20:26;;;;;;;19.45;12.98;;;2.50;99.90;;;1.49;100.00;101890.44;4204875;28;20016;-78
2023/04/05 03:22:27;;;;;;;18.95;12.60;;;2.50;99.90;;;1.48;100.00;101896.56;4205921;28;20468;-77
2023/04/05 03:24:28;;;;;;;21.55;12.77;;;2.40;99.90;;;1.50;100.00;101899.09;4207850;28;20020;-78
2023/04/05 03:26:28;;;;;;;21.17;12.68;;;2.40;99.90;;;1.48;100.00;101882.72;4221566;28;20028;-78
2023/04/05 03:28:33;;;;;;;18.75;12.52;;;2.40;99.90;;;1.46;100.00;101887.16;4221502;28;20551;-78
2023/04/05 03:30:34;;;;;;;19.63;12.73;;;2.40;99.90;;;1.44;100.00;101875.97;4220165;28;20024;-78
2023/04/05 03:32:35;;;;;;;21.25;13.00;;;2.40;99.90;;;1.49;100.00;101876.63;4220349;28;20046;-79
2023/04/05 03:34:37;;;;;;;24.52;15.00;;;2.40;99.90;;;1.52;100.00;101884.28;4220291;28;20028;-78
2023/04/05 03:36:41;;;;;;;19.10;12.45;;;2.40;99.90;;;1.53;100.00;101883.34;4221376;28;20101;-78
2023/04/05 03:38:44;;;;;;;17.92;12.27;;;2.50;99.90;;;1.46;100.00;101892.34;4225551;28;20030;-78
2023/04/05 03:40:45;;;;;;;11.97;8.80;;;2.40;99.90;;;1.34;100.00;101892.91;4208537;28;20542;-78
2023/04/05 03:42:46;;;;;;;17.92;13.02;;;2.40;99.90;;;1.31;100.00;101899.09;4203235;28;20279;-79
2023/04/05 03:44:51;;;;;;;17.85;11.38;;;2.30;99.90;;;1.27;100.00;101894.09;4203458;28;20025;-78
2023/04/05 03:46:52;;;;;;;17.40;12.55;;;2.30;99.90;;;1.22;100.00;101896.91;4201853;28;20569;-77
2023/04/05 03:48:53;;;;;;;20.38;12.73;;;2.30;99.90;;;1.22;100.00;101889.13;4209793;28;20021;-77
2023/04/05 03:50:55;;;;;;;19.92;12.85;;;2.20;99.90;;;1.19;100.00;101896.19;4221324;28;20043;-78
2023/04/05 03:52:56;;;;;;;18.65;12.68;;;2.20;99.90;;;1.15;100.00;101897.22;4219860;28;20047;-77
2023/04/05 03:54:56;;;;;;;17.27;12.63;;;2.10;99.90;;;1.13;100.00;101899.06;4219707;28;20035;-77
2023/04/05 03:56:57;;;;;;;18.42;12.30;;;2.10;99.90;;;1.11;100.00;101894.75;4221222;28;20499;-77
2023/04/05 03:58:58;;;;;;;18.02;11.20;;;2.10;99.90;;;1.10;100.00;101895.69;4220812;28;20411;-77
2023/04/05 04:00:59;;;;;;;18.08;10.85;;;2.10;99.90;;;1.06;100.00;101896.72;4219751;28;20035;-78
2023/04/05 04:03:00;;;;;;;15.57;11.18;;;2.10;99.90;;;1.05;100.00;101891.59;4220830;28;20486;-77
2023/04/05 04:05:01;;;;;;;18.13;11.07;;;2.00;99.90;;;1.04;100.00;101889.94;4221057;28;20036;-77
2023/04/05 04:07:02;;;;;;;16.75;11.93;;;2.00;99.90;;;1.03;100.00;101896.88;4219723;28;20029;-77
2023/04/05 04:09:04;;;;;;;21.38;12.40;;;2.10;99.90;;;1.00;100.00;101896.16;4209763;28;20459;-77
2023/04/05 04:11:06;;;;;;;17.05;11.85;;;2.00;99.90;;;1.03;100.00;101902.06;4209875;28;20564;-78
2023/04/05 04:13:06;;;;;;;19.95;11.90;;;2.00;99.90;;;1.02;100.00;101897.78;4204125;28;20021;-78
2023/04/05 04:15:08;;;;;;;16.00;10.40;;;2.00;99.90;;;1.01;100.00;101900.44;4204226;28;20034;-78
2023/04/05 04:17:09;;;;;;;17.95;10.88;;;2.00;99.90;;;0.99;100.00;101903.09;4203935;28;20029;-78
2023/04/05 04:19:09;;;;;;;17.95;12.90;;;2.00;99.90;;;0.98;100.00;101904.03;4202462;28;20078;-78
2023/04/05 04:21:12;;;;;;;18.08;12.07;;;2.00;99.90;;;0.99;100.00;101905.69;4202770;28;20029;-78
2023/04/05 04:23:13;;;;;;;15.57;12.00;;;2.00;99.90;;;0.99;100.00;101902.25;4203757;28;20033;-78
2023/04/05 04:25:17;;;;;;;20.58;12.60;;;2.00;99.90;;;1.04;100.00;101901.16;4202348;28;20385;-77
2023/04/05 04:27:19;;;;;;;15.55;10.98;;;2.00;99.90;;;1.07;100.00;101900.19;4203727;28;20501;-78
2023/04/05 04:29:29;;;;;;;17.65;11.27;;;2.10;99.90;;;1.11;100.00;101906.91;4212434;28;20114;-78
2023/04/05 04:31:32;;;;;;;15.82;11.38;;;2.10;99.90;;;1.11;100.00;101892.16;4219398;28;20021;-78
2023/04/05 04:33:33;;;;;;;23.23;12.88;;;2.10;99.90;;;1.18;100.00;101899.69;4203769;28;20519;-78
2023/04/05 04:35:37;;;;;;;22.23;12.00;;;2.20;99.90;;;1.21;100.00;101896.97;4203552;28;20032;-78
2023/04/05 04:37:45;;;;;;;18.00;13.32;;;2.20;99.90;;;1.20;100.00;101900.47;4203524;28;20032;-78
2023/04/05 04:39:47;;;;;;;21.75;12.75;;;2.20;99.90;;;1.17;100.00;101898.00;4203486;28;20036;-77
2023/04/05 04:41:49;;;;;;;17.00;11.85;;;2.20;99.90;;;1.23;100.00;101903.78;4202288;28;20099;-78
2023/04/05 04:43:50;;;;;;;17.38;11.48;;;2.20;99.90;;;1.22;100.00;101896.91;4203599;28;20035;-78
2023/04/05 04:45:54;;;;;;;20.13;13.40;;;2.20;99.90;;;1.27;100.00;101896.69;4203844;28;20020;-78
2023/04/05 04:47:54;;;;;;;18.48;13.50;;;2.20;99.90;;;1.33;100.00;101902.47;4202392;28;20032;-78
2023/04/05 04:49:56;;;;;;;17.92;12.50;;;2.30;99.90;;;1.31;100.00;101899.09;4203329;28;20020;-78
2023/04/05 04:51:58;;;;;;;17.10;12.35;;;2.30;99.90;;;1.31;100.00;101906.03;4203331;28;20472;-77
2023/04/05 04:53:59;;;;;;;16.25;11.05;;;2.30;99.90;;;1.28;100.00;101903.59;4203453;28;20387;-78
2023/04/05 04:56:00;;;;;;;18.75;12.77;;;2.30;99.90;;;1.29;100.00;101906.09;4202147;28;20036;-79
2023/04/05 04:58:08;;;;;;;23.05;12.77;;;2.30;99.90;;;1.34;100.00;101904.16;4203239;28;20029;-78
2023/04/05 05:00:14;;;;;;;20.45;11.98;;;2.30;99.90;;;1.37;100.00;101904.03;4203398;28;20120;-77
2023/04/05 05:02:15;;;;;;;19.27;12.90;;;2.30;99.90;;;1.38;100.00;101890.09;4211010;28;20111;-78
2023/04/05 05:04:16;;;;;;;17.48;11.38;;;2.40;99.90;;;1.36;100.00;101902.31;4203891;28;20106;-78
2023/04/05 05:06:21;;;;;;;16.08;12.18;;;2.40;99.90;;;1.32;100.00;101900.75;4214208;28;20024;-77
2023/04/05 05:08:21;;;;;;;;;;;2.30;99.90;;;1.24;100.00;101899.41;4210353;28;20408;-78
2023/04/05 05:10:22;;;;;;;21.70;13.00;;;2.30;99.90;;;1.24;100.00;101902.03;4210607;28;19908;-78
2023/04/05 05:12:23;;;;;;;19.70;12.10;;;2.30;99.90;;;1.24;100.00;101897.66;4208074;28;20563;-77
2023/04/05 05:14:24;;;;;;;21.67;12.95;;;2.30;99.90;;;1.30;100.00;101899.16;4201930;28;20048;-78
2023/04/05 05:16:26;;;;;;;21.52;13.25;;;2.20;99.90;;;1.32;100.00;101899.91;4203099;28;20035;-78
2023/04/05 05:18:27;;;;;;;22.30;13.95;;;2.30;99.90;;;1.38;100.00;101903.09;4204586;28;20123;-78
2023/04/05 05:20:28;;;;;;;20.88;14.00;;;2.30;99.90;;;1.40;100.00;101905.63;4218884;28;20111;-78
2023/04/05 05:22:29;;;;;;;20.52;13.73;;;2.30;99.90;;;1.37;100.00;101908.38;4203202;28;20078;-78
2023/04/05 05:24:30;;;;;;;20.90;12.73;;;2.40;99.90;;;1.35;100.00;101911.03;4202987;28;20021;-78
2023/04/05 05:26:31;;;;;;;22.45;13.73;;;2.40;99.90;;;1.35;100.00;101910.19;4211457;28;20078;-83
2023/04/05 05:28:32;;;;;;;18.08;12.57;;;2.40;99.90;;;1.29;100.00;101897.44;4216312;28;20020;-84
2023/04/05 05:30:33;;;;;;;21.70;13.50;;;2.30;99.90;;;1.37;100.00;101913.56;4213778;28;20102;-84
2023/04/05 05:32:34;;;;;;;21.00;13.45;;;2.40;99.90;;;1.39;100.00;101919.53;4206141;28;20020;-78
2023/04/05 05:34:35;;;;;;;21.13;12.90;;;2.40;99.90;;;1.45;100.00;101916.66;4214975;28;20503;-78
2023/04/05 05:36:36;;;;;;;21.00;13.43;;;2.40;99.90;;;1.45;100.00;101901.91;4213555;28;20024;-78
2023/04/05 05:38:37;;;;;;;23.95;14.20;;;2.50;99.90;;;1.55;100.00;101915.34;4217778;28;20024;-78
2023/04/05 05:40:38;;;;;;;20.60;14.30;;;2.50;99.90;;;1.57;100.00;101906.56;4219471;28;20024;-78
2023/04/05 05:42:39;;;;;;;19.80;13.20;;;2.60;99.90;;;1.62;100.00;101904.56;4200702;28;20037;-78
2023/04/05 05:44:40;;;;;;;20.05;13.60;;;2.60;99.90;;;1.70;100.00;101914.63;4213305;28;20487;-78
2023/04/05 05:46:40;;;;;;;18.45;12.45;;;2.70;99.90;;;1.76;100.00;101916.09;4219133;28;20023;-78
2023/04/05 05:48:41;;;;;;;21.52;13.80;;;2.70;99.90;;;1.84;100.00;101917.44;4218240;28;20020;-78
2023/04/05 05:50:43;;;;;;;18.05;12.43;;;2.80;99.90;;;1.88;100.00;101915.53;4219276;28;20039;-77
2023/04/05 05:52:44;;;;;;;20.15;13.60;;;2.80;99.90;;;1.90;100.00;101913.69;4207489;28;20021;-78
2023/04/05 05:54:46;;;;;;;20.20;13.00;;;2.90;99.90;;;1.97;100.00;101922.91;4217941;28;20028;-78
2023/04/05 05:56:46;;;;;;;18.40;12.95;;;2.90;99.90;;;2.01;100.00;101912.28;4205638;28;20495;-78
2023/04/05 05:58:48;;;;;;;21.63;13.82;;;3.00;99.90;;;2.06;100.00;101918.09;4219191;28;20031;-78
2023/04/05 06:00:50;;;;;;;21.60;14.00;;;3.00;99.90;;;2.08;100.00;101916.28;4219083;28;20107;-78
2023/04/05 06:02:51;;;;;;;20.98;13.45;;;3.00;99.90;;;2.12;100.00;101909.19;4204274;28;20158;-78
2023/04/05 06:04:53;;;;;;;19.63;14.07;;;3.10;99.90;;;2.17;100.00;101910.63;4204267;28;20507;-78
2023/04/05 06:06:55;;;;;;;21.40;14.57;;;3.10;99.90;;;2.23;100.00;101910.34;4212142;28;20084;-78
2023/04/05 06:08:56;;;;;;;21.38;14.35;;;3.20;99.90;;;2.25;100.00;101905.03;4216279;28;20044;-78
2023/04/05 06:10:57;;;;;;;20.25;13.63;;;3.20;99.90;;;2.35;100.00;101905.44;4218286;28;20033;-78
2023/04/05 06:12:58;;;;;;;20.80;14.82;;;3.30;99.90;;;2.44;100.00;101910.19;4214401;28;20033;-78
2023/04/05 06:15:01;;;;;;;23.65;15.25;;;3.30;99.90;;;2.50;100.00;101918.56;4201589;28;20384;-78
2023/04/05 06:17:02;;;;;;;21.85;14.40;;;3.40;99.90;;;2.61;100.00;101915.41;4200534;28;20029;-76
2023/04/05 06:19:02;;;;;;;22.55;13.52;;;3.50;99.90;;;2.68;100.00;101911.59;4201927;28;20036;-77
2023/04/05 06:21:03;;;;;;;21.35;15.48;;;3.60;99.90;;;2.73;100.00;101907.81;4202308;28;20039;-76
2023/04/05 06:23:07;;;;;;;21.75;14.32;;;3.60;99.90;;;2.80;100.00;101908.38;4220539;28;20496;-76
2023/04/05 06:25:11;;;;;;;17.47;11.57;;;3.70;99.90;;;2.86;100.00;101915.03;4209315;28;20592;-76
2023/04/05 06:27:13;;;;;;;;;;;3.80;99.90;;;2.93;100.00;101919.84;4200649;28;20358;-75
2023/04/05 06:29:14;;;;;;;19.38;14.32;;;3.90;99.90;;;3.04;100.00;101917.53;4205510;28;20041;-78
2023/04/05 06:31:16;;;;;;;22.35;15.02;;;3.90;99.90;;;3.16;100.00;101910.84;4212926;28;20020;-75
2023/04/05 06:33:20;;;;;;;23.05;14.13;;;4.00;99.90;;;3.24;100.00;101919.94;4219282;28;20102;-78
2023/04/05 06:35:23;;;;;;;19.38;14.40;;;4.10;99.90;;;3.33;100.00;101924.69;4204550;28;20032;-76
2023/04/05 06:37:23;;;;;;;21.55;15.43;;;4.30;99.90;;;3.39;100.00;101920.91;4205409;28;20500;-78
2023/04/05 06:39:25;;;;;;;20.98;15.27;;;4.30;99.90;;;3.47;100.00;101925.69;4210755;28;20162;-79
2023/04/05 06:41:26;;;;;;;19.23;14.07;;;4.40;99.90;;;3.51;100.00;101916.78;4220409;28;20016;-79
2023/04/05 06:43:27;;;;;;;19.67;13.77;;;4.40;99.90;;;3.63;100.00;101921.34;4208457;28;20078;-80
2023/04/05 06:45:28;;;;;;;19.65;13.50;;;4.50;99.90;;;3.71;100.00;101925.22;4200075;28;20535;-75
2023/04/05 06:47:33;;;;;;;23.27;15.32;;;4.60;99.90;;;3.86;100.00;101926.16;4200097;28;20032;-76
2023/04/05 06:49:34;;;;;;;21.23;14.50;;;4.70;99.90;;;3.96;100.00;101924.72;4201707;28;20052;-75
2023/04/05 06:51:35;;;;;;;19.60;13.68;;;4.80;99.90;;;4.11;100.00;101923.03;4204807;28;20023;-77
2023/04/05 06:53:36;;;;;;;18.73;14.30;;;5.00;99.90;;;4.24;100.00;101932.69;4201081;28;20040;-77
2023/04/05 06:55:36;;;;;;;19.42;14.25;;;5.10;99.90;;;4.33;100.00;101919.13;4201385;28;20021;-77
2023/04/05 06:57:37;;;;;;;20.48;12.85;;;5.20;99.90;;;4.48;100.00;101920.84;4199928;28;20028;-76
2023/04/05 06:59:38;;;;;;;22.00;14.82;;;5.30;99.90;;;4.59;100.00;101912.41;4201316;28;20032;-76
2023/04/05 07:01:39;;;;;;;24.83;14.48;;;5.50;99.90;;;4.69;100.00;101920.56;4206984;28;20046;-75
2023/04/05 07:03:40;;;;;;;19.90;14.30;;;5.50;99.90;;;4.81;100.00;101925.03;4216317;28;20485;-75
2023/04/05 07:05:48;;;;;;;21.90;14.75;;;5.60;99.90;;;4.91;100.00;101919.19;4204585;28;20024;-76
2023/04/05 07:07:49;;;;;;;23.98;14.02;;;5.70;99.90;;;5.01;100.00;101922.94;4213737;28;20515;-75
2023/04/05 07:09:50;;;;;;;20.17;14.65;;;5.90;99.90;;;5.14;100.00;101923.03;4199566;28;20044;-76
2023/04/05 07:11:51;;;;;;;18.38;13.75;;;6.00;99.90;;;5.26;100.00;101917.06;4206897;28;20020;-76
2023/04/05 07:13:52;;;;;;;20.48;13.48;;;6.10;99.90;;;5.40;100.00;101924.09;4207142;28;20078;-77
2023/04/05 07:16:00;;;;;;;23.67;15.52;;;6.20;99.90;;;5.44;100.00;101920.34;4214819;28;20482;-76
2023/04/05 07:18:01;;;;;;;20.08;14.00;;;6.30;99.90;;;5.53;100.00;101920.59;4201750;28;20028;-75
2023/04/05 07:20:05;;;;;;;19.00;13.60;;;6.30;99.90;;;5.61;100.00;101921.91;4211927;28;20055;-75
2023/04/05 07:22:06;;;;;;;18.30;13.48;;;6.40;99.90;;;5.75;100.00;101924.50;4213071;28;20028;-75
2023/04/05 07:24:07;;;;;;;19.27;13.50;;;6.50;99.90;;;5.83;100.00;101917.00;4202723;28;20032;-75
2023/04/05 07:26:08;;;;;;;21.13;15.52;;;6.50;99.90;;;5.89;100.00;101921.88;4200521;28;20024;-75
2023/04/05 07:28:09;;;;;;;20.70;14.35;;;6.70;99.90;;;5.93;100.00;101916.38;4200302;28;20373;-75
2023/04/05 07:30:10;;;;;;;21.15;13.93;;;6.70;99.90;;;6.03;100.00;101911.41;4200406;28;20024;-75
2023/04/05 07:32:11;;;;;;;22.58;14.02;;;6.70;99.90;;;6.18;100.00;101917.44;4216734;28;20020;-76
2023/04/05 07:34:12;;;;;;;19.98;14.40;;;6.80;99.90;;;6.33;100.00;101911.19;4201553;28;20028;-76
2023/04/05 07:36:13;;;;;;;20.25;13.57;;;7.00;99.90;;;6.44;100.00;101906.06;4201316;28;20033;-76
2023/04/05 07:38:14;;;;;;;20.20;13.75;;;7.10;99.90;;;6.57;100.00;101909.59;4201164;28;20082;-75
2023/04/05 07:40:15;;;;;;;17.67;13.10;;;7.20;99.90;;;6.68;100.00;101901.84;4201269;28;20084;-76
2023/04/05 07:42:18;;;;;;;16.15;12.05;;;7.30;99.90;;;6.77;100.00;101895.13;4205394;28;20175;-76
2023/04/05 07:44:19;;;;;;;18.85;12.57;;;7.50;99.90;;;6.86;100.00;101902.38;4209100;28;20024;-76
2023/04/05 07:46:20;;;;;;;18.83;13.18;;;7.60;99.90;;;6.91;100.00;101916.00;4218048;28;20033;-75
2023/04/05 07:48:21;;;;;;;17.80;12.38;;;7.60;99.90;;;6.94;100.00;101910.56;4217858;28;20497;-76
2023/04/05 07:50:22;;;;;;;17.63;12.45;;;7.60;99.90;;;7.02;100.00;101906.47;4216868;28;20025;-76
2023/04/05 07:52:22;;;;;;;15.13;12.07;;;7.70;99.90;;;7.13;100.00;101911.84;4208822;28;20051;-76
2023/04/05 07:54:23;;;;;;;15.70;12.82;;;7.80;99.90;;;7.21;100.00;101903.41;4201077;28;20443;-76
2023/04/05 07:56:24;;;;;;;16.95;12.85;;;7.90;99.90;;;7.14;100.00;101903.00;4201102;28;20039;-76
2023/04/05 07:58:25;;;;;;;14.18;11.60;;;8.00;99.90;;;7.33;100.00;101904.34;4201251;28;20024;-76
2023/04/05 08:00:26;;;;;;;14.63;11.25;;;8.10;99.90;;;7.45;100.00;101901.72;4202460;28;20025;-76
2023/04/05 08:02:27;;;;;;;16.48;12.10;;;8.20;99.90;;;7.56;100.00;101896.53;4215253;28;20024;-77
2023/04/05 08:04:28;;;;;;;15.20;12.20;;;8.30;99.90;;;7.68;100.00;101894.81;4232410;28;20081;-77
2023/04/05 08:06:29;;;;;;;17.05;12.40;;;8.40;99.90;;;7.80;100.00;101900.03;4204007;28;20059;-79
2023/04/05 08:08:29;;;;;;;16.00;12.27;;;8.50;99.90;;;7.93;100.00;101899.16;4210731;28;20033;-79
2023/04/05 08:10:30;;;;;;;17.60;12.70;;;8.60;99.90;;;8.06;100.00;101892.94;4203203;28;20028;-77
2023/04/05 08:12:33;;;;;;;17.48;13.13;;;8.80;99.90;;;8.22;100.00;101888.22;4203792;28;20526;-79
2023/04/05 08:14:34;;;;;;;18.85;12.15;;;8.90;99.90;;;8.29;100.00;101889.47;4208583;28;20028;-78
2023/04/05 08:16:35;;;;;;;17.17;11.70;;;9.00;99.90;;;8.44;100.00;101879.63;4222105;28;20032;-77
2023/04/05 08:18:36;;;;;;;15.90;11.68;;;9.10;99.90;;;8.65;100.00;101888.53;4211233;28;20059;-78
2023/04/05 08:20:39;;;;;;;19.05;13.50;;;9.20;99.90;;;8.77;100.00;101886.75;4219892;28;20028;-78
2023/04/05 08:22:40;;;;;;;16.15;11.65;;;9.40;99.90;;;8.82;99.98;101880.19;4226905;28;20098;-78
2023/04/05 08:24:41;;;;;;;15.85;11.63;;;9.50;99.90;;;8.94;99.06;101888.94;4202710;28;20020;-78
2023/04/05 08:26:42;;;;;;;16.85;11.88;;;9.60;99.90;;;9.07;98.19;101887.03;4204278;28;20020;-78
2023/04/05 08:28:44;;;;;;;17.08;11.57;;;9.70;99.90;;;9.19;96.26;101887.88;4202602;28;20035;-78